Time,TemperatureF,DewpointF,PressureIn,WindDirection,WindDirectionDegrees,WindSpeedMPH,WindSpeedGustMPH,Humidity,HourlyPrecipIn,Conditions,Clouds,dailyrainin,SoftwareType,DateUTC
2013-03-11 00:01:00,34.0,3.6,30.03,SSE,149,4.0,8.7,27,0.00,,,-99.99,FreeWX 2.04,2013-03-11 06:01:00,
2013-03-11 00:11:00,34.0,3.6,30.00,SSE,166,2.0,6.9,27,0.00,,,-99.99,FreeWX 2.04,2013-03-11 06:11:00,
2013-03-11 00:21:00,33.6,1.6,30.00,South,181,3.0,8.3,25,0.00,,,-99.99,FreeWX 2.04,2013-03-11 06:21:00,
2013-03-11 00:31:00,34.0,-0.8,30.00,South,178,4.0,8.3,22,0.00,,,-99.99,FreeWX 2.04,2013-03-11 06:31:00,
2013-03-11 00:41:00,34.0,-0.8,30.00,SSW,212,3.0,8.3,22,0.00,,,-99.99,FreeWX 2.04,2013-03-11 06:41:00,
2013-03-11 00:51:00,34.0,-2.7,30.00,SSW,195,4.0,8.3,20,0.00,,,-99.99,FreeWX 2.04,2013-03-11 06:51:00,
2013-03-11 01:01:00,34.2,-2.7,30.00,South,190,3.0,9.6,20,0.00,,,-99.99,FreeWX 2.04,2013-03-11 07:01:00,
2013-03-11 01:11:00,33.8,-2.9,30.00,WSW,238,3.0,8.3,20,0.00,,,-99.99,FreeWX 2.04,2013-03-11 07:11:00,
2013-03-11 01:21:00,33.8,-2.9,30.00,SSW,213,2.0,7.4,20,0.00,,,-99.99,FreeWX 2.04,2013-03-11 07:21:00,
2013-03-11 01:31:00,33.8,-2.9,30.00,SSW,200,1.0,4.9,20,0.00,,,-99.99,FreeWX 2.04,2013-03-11 07:31:00,
2013-03-11 01:41:00,33.8,-2.9,30.00,SSW,199,1.0,6.3,20,0.00,,,-99.99,FreeWX 2.04,2013-03-11 07:41:00,
2013-03-11 01:51:00,34.2,-2.7,30.00,West,269,3.0,6.9,20,0.00,,,-99.99,FreeWX 2.04,2013-03-11 07:51:00,
2013-03-11 02:01:00,33.6,-3.1,30.00,South,180,2.0,5.4,20,0.00,,,-99.99,FreeWX 2.04,2013-03-11 08:01:00,
2013-03-11 02:11:00,33.8,-2.9,30.00,NE,54,3.0,6.9,20,0.00,,,-99.99,FreeWX 2.04,2013-03-11 08:11:00,
2013-03-11 02:22:00,34.3,-6.0,30.00,NE,40,4.0,8.7,17,0.00,,,-99.99,FreeWX 2.04,2013-03-11 08:22:00,
2013-03-11 02:32:00,34.2,-2.7,30.00,SE,136,4.0,9.2,20,0.00,,,-99.99,FreeWX 2.04,2013-03-11 08:32:00,
2013-03-11 02:42:00,33.6,-3.1,30.00,SSW,206,4.0,9.6,20,0.00,,,-99.99,FreeWX 2.04,2013-03-11 08:42:00,
2013-03-11 02:52:00,33.8,-2.9,30.00,SSW,207,2.0,7.4,20,0.00,,,-99.99,FreeWX 2.04,2013-03-11 08:52:00,
2013-03-11 03:02:00,33.4,-3.3,30.00,North,-999,0.0,4.9,20,0.00,,,-99.99,FreeWX 2.04,2013-03-11 09:02:00,
2013-03-11 03:12:00,33.3,-3.5,30.00,SSW,213,1.0,7.4,20,0.00,,,-99.99,FreeWX 2.04,2013-03-11 09:12:00,
2013-03-11 03:22:00,33.3,-3.5,30.00,SW,217,2.0,8.3,20,0.00,,,-99.99,FreeWX 2.04,2013-03-11 09:22:00,
2013-03-11 03:32:00,33.4,-3.3,30.00,SSW,197,3.0,8.3,20,0.00,,,-99.99,FreeWX 2.04,2013-03-11 09:32:00,
2013-03-11 03:42:00,33.1,-3.6,30.00,SSW,211,3.0,11.2,20,0.00,,,-99.99,FreeWX 2.04,2013-03-11 09:42:00,
2013-03-11 03:52:00,33.6,-3.1,30.00,South,173,4.0,12.1,20,0.00,,,-99.99,FreeWX 2.04,2013-03-11 09:52:00,
2013-03-11 04:02:00,33.6,-3.1,30.00,South,181,4.0,10.1,20,0.00,,,-99.99,FreeWX 2.04,2013-03-11 10:02:00,
2013-03-11 04:12:00,33.6,-3.1,29.97,North,6,3.0,8.7,20,0.00,,,-99.99,FreeWX 2.04,2013-03-11 10:12:00,
2013-03-11 04:22:00,33.3,-3.5,29.97,NE,52,3.0,10.1,20,0.00,,,-99.99,FreeWX 2.04,2013-03-11 10:22:00,
2013-03-11 04:32:00,33.1,-3.6,29.97,ESE,114,3.0,8.3,20,0.00,,,-99.99,FreeWX 2.04,2013-03-11 10:32:00,
2013-03-11 04:42:00,32.5,-1.1,29.97,SSE,160,2.0,6.7,23,0.00,,,-99.99,FreeWX 2.04,2013-03-11 10:42:00,
2013-03-11 04:52:00,32.7,-0.9,29.97,South,175,3.0,10.1,23,0.00,,,-99.99,FreeWX 2.04,2013-03-11 10:52:00,
2013-03-11 05:02:00,33.3,-1.5,29.97,South,186,4.0,11.6,22,0.00,,,-99.99,FreeWX 2.04,2013-03-11 11:02:00,
2013-03-11 05:12:00,32.7,0.9,29.97,SW,222,4.0,11.6,25,0.00,,,-99.99,FreeWX 2.04,2013-03-11 11:12:00,
2013-03-11 05:22:00,32.2,2.8,29.97,SSW,213,4.0,10.5,28,0.00,,,-99.99,FreeWX 2.04,2013-03-11 11:22:00,
2013-03-11 05:32:00,32.2,4.3,29.97,SW,214,2.0,7.8,30,0.00,,,-99.99,FreeWX 2.04,2013-03-11 11:32:00,
2013-03-11 05:42:00,32.2,4.3,29.97,SW,217,2.0,7.4,30,0.00,,,-99.99,FreeWX 2.04,2013-03-11 11:42:00,
2013-03-11 05:52:00,32.2,4.3,29.97,SW,220,2.0,5.8,30,0.00,,,-99.99,FreeWX 2.04,2013-03-11 11:52:00,
2013-03-11 06:02:00,32.0,4.1,29.97,North,-999,0.0,4.5,30,0.00,,,-99.99,FreeWX 2.04,2013-03-11 12:02:00,
2013-03-11 06:12:00,32.5,3.0,29.97,WNW,293,2.0,5.8,28,0.00,,,-99.99,FreeWX 2.04,2013-03-11 12:12:00,
2013-03-11 06:22:00,32.2,4.3,29.97,SW,234,1.0,4.5,30,0.00,,,-99.99,FreeWX 2.04,2013-03-11 12:22:00,
2013-03-11 06:32:00,32.2,5.0,29.97,SW,231,2.0,6.7,31,0.00,,,-99.99,FreeWX 2.04,2013-03-11 12:32:00,
2013-03-11 06:42:00,31.6,5.2,29.97,SW,225,2.0,6.7,32,0.00,,,-99.99,FreeWX 2.04,2013-03-11 12:42:00,
2013-03-11 06:52:00,31.3,7.5,29.94,SSW,206,4.0,8.7,36,0.00,,,-99.99,FreeWX 2.04,2013-03-11 12:52:00,
2013-03-11 07:02:00,31.5,7.7,29.94,SE,131,6.0,11.2,36,0.00,,,-99.99,FreeWX 2.04,2013-03-11 13:02:00,
2013-03-11 07:12:00,32.4,7.2,29.94,ESE,105,4.0,12.5,34,0.00,,,-99.99,FreeWX 2.04,2013-03-11 13:12:00,
2013-03-11 07:22:00,32.4,7.2,29.94,North,355,4.0,7.8,34,0.00,,,-99.99,FreeWX 2.04,2013-03-11 13:22:00,
2013-03-11 07:32:00,31.8,7.3,29.94,WNW,299,5.0,7.8,35,0.00,,,-99.99,FreeWX 2.04,2013-03-11 13:32:00,
2013-03-11 07:42:00,31.8,7.9,29.97,WNW,288,3.0,6.9,36,0.00,,,-99.99,FreeWX 2.04,2013-03-11 13:42:00,
2013-03-11 07:52:00,31.6,9.0,29.97,SW,228,1.0,4.5,38,0.00,,,-99.99,FreeWX 2.04,2013-03-11 13:52:00,
2013-03-11 08:02:00,31.3,9.9,29.97,North,-999,0.0,5.4,40,0.00,,,-99.99,FreeWX 2.04,2013-03-11 14:02:00,
2013-03-11 08:12:00,31.1,10.2,29.97,SSE,147,1.0,4.5,41,0.00,,,-99.99,FreeWX 2.04,2013-03-11 14:12:00,
2013-03-11 08:22:00,30.9,10.6,29.97,SSE,159,2.0,5.8,42,0.00,,,-99.99,FreeWX 2.04,2013-03-11 14:22:00,
2013-03-11 08:33:00,30.7,10.9,29.97,North,-999,0.0,3.1,43,0.00,,,-99.99,FreeWX 2.04,2013-03-11 14:33:00,
2013-03-11 08:43:00,30.9,11.1,29.97,WSW,248,1.0,6.3,43,0.00,,,-99.99,FreeWX 2.04,2013-03-11 14:43:00,
2013-03-11 08:53:00,30.9,11.1,29.97,WSW,257,2.0,6.9,43,0.00,,,-99.99,FreeWX 2.04,2013-03-11 14:53:00,
2013-03-11 09:03:00,31.1,12.2,29.97,North,-999,0.0,6.7,45,0.00,,,-99.99,FreeWX 2.04,2013-03-11 15:03:00,
2013-03-11 09:13:00,31.3,11.8,29.97,North,-999,0.0,0.0,44,0.00,,,-99.99,FreeWX 2.04,2013-03-11 15:13:00,
2013-03-11 09:23:00,30.9,12.0,29.97,West,273,2.0,6.7,45,0.00,,,-99.99,FreeWX 2.04,2013-03-11 15:23:00,
2013-03-11 09:33:00,30.4,13.1,29.97,NW,313,3.0,6.3,48,0.00,,,-99.99,FreeWX 2.04,2013-03-11 15:33:00,
2013-03-11 09:43:00,29.8,14.4,29.97,NNW,333,4.0,7.8,52,0.00,,,-99.99,FreeWX 2.04,2013-03-11 15:43:00,
2013-03-11 09:53:00,29.8,15.3,29.97,NW,326,2.0,4.9,54,0.00,,,-99.99,FreeWX 2.04,2013-03-11 15:53:00,
2013-03-11 10:03:00,29.8,16.2,29.97,North,-999,0.0,5.4,56,0.00,,,-99.99,FreeWX 2.04,2013-03-11 16:03:00,
2013-03-11 10:13:00,30.0,16.7,30.00,North,-999,0.0,4.0,57,0.00,,,-99.99,FreeWX 2.04,2013-03-11 16:13:00,
2013-03-11 10:23:00,30.2,17.6,29.97,North,-999,0.0,5.8,59,0.00,,,-99.99,FreeWX 2.04,2013-03-11 16:23:00,
2013-03-11 10:33:00,30.7,16.9,29.97,North,-999,0.0,6.3,56,0.00,,,-99.99,FreeWX 2.04,2013-03-11 16:33:00,
2013-03-11 10:43:00,30.9,16.3,29.97,West,270,3.0,6.3,54,0.00,,,-99.99,FreeWX 2.04,2013-03-11 16:43:00,
2013-03-11 10:53:00,30.7,15.6,29.97,NNW,329,5.0,7.8,53,0.00,,,-99.99,FreeWX 2.04,2013-03-11 16:53:00,
2013-03-11 11:03:00,30.7,15.3,29.97,NNW,328,7.0,10.1,52,0.00,,,-99.99,FreeWX 2.04,2013-03-11 17:03:00,
2013-03-11 11:13:00,31.1,15.6,29.97,NW,310,7.0,12.1,52,0.00,,,-99.99,FreeWX 2.04,2013-03-11 17:13:00,
2013-03-11 11:23:00,31.6,14.2,30.00,West,271,5.0,9.6,48,0.00,,,-99.99,FreeWX 2.04,2013-03-11 17:23:00,
2013-03-11 11:33:00,32.4,12.9,30.00,West,278,4.0,6.9,44,0.00,,,-99.99,FreeWX 2.04,2013-03-11 17:33:00,
2013-03-11 11:43:00,33.4,13.8,30.00,West,259,2.0,5.4,44,0.00,,,-99.99,FreeWX 2.04,2013-03-11 17:43:00,
2013-03-11 11:53:00,34.0,13.8,30.00,WSW,240,1.0,6.3,43,0.00,,,-99.99,FreeWX 2.04,2013-03-11 17:53:00,
2013-03-11 12:03:00,34.9,13.6,30.00,WSW,254,1.0,4.5,41,0.00,,,-99.99,FreeWX 2.04,2013-03-11 18:03:00,
2013-03-11 12:13:00,36.0,14.0,29.97,North,-999,0.0,2.7,40,0.00,,,-99.99,FreeWX 2.04,2013-03-11 18:13:00,
2013-03-11 12:23:00,34.7,12.9,29.97,WNW,284,1.0,5.4,40,0.00,,,-99.99,FreeWX 2.04,2013-03-11 18:23:00,
2013-03-11 12:33:00,35.1,12.6,29.97,West,267,4.0,8.3,39,0.00,,,-99.99,FreeWX 2.04,2013-03-11 18:33:00,
2013-03-11 12:43:00,35.4,11.8,29.97,West,271,4.0,8.3,37,0.00,,,-99.99,FreeWX 2.04,2013-03-11 18:43:00,
2013-03-11 12:53:00,35.8,10.2,29.97,WSW,258,4.0,10.5,34,0.00,,,-99.99,FreeWX 2.04,2013-03-11 18:53:00,
2013-03-11 13:03:00,37.2,10.8,29.97,WSW,254,4.0,7.8,33,0.00,,,-99.99,FreeWX 2.04,2013-03-11 19:03:00,
2013-03-11 13:13:00,37.6,10.4,29.97,WSW,249,5.0,12.1,32,0.00,,,-99.99,FreeWX 2.04,2013-03-11 19:13:00,
2013-03-11 13:23:00,37.4,9.5,29.97,WSW,250,4.0,9.6,31,0.00,,,-99.99,FreeWX 2.04,2013-03-11 19:23:00,
2013-03-11 13:33:00,36.7,9.7,29.97,WSW,256,4.0,11.2,32,0.00,,,-99.99,FreeWX 2.04,2013-03-11 19:33:00,
2013-03-11 13:43:00,36.1,10.6,29.97,WSW,253,4.0,8.7,34,0.00,,,-99.99,FreeWX 2.04,2013-03-11 19:43:00,
2013-03-11 13:53:00,36.5,10.2,29.97,WSW,247,4.0,7.8,33,0.00,,,-99.99,FreeWX 2.04,2013-03-11 19:53:00,
2013-03-11 14:03:00,38.3,9.7,29.97,WSW,249,4.0,9.2,30,0.00,,,-99.99,FreeWX 2.04,2013-03-11 20:03:00,
2013-03-11 14:13:00,41.7,11.1,29.97,WSW,252,5.0,9.6,28,0.00,,,-99.99,FreeWX 2.04,2013-03-11 20:13:00,
2013-03-11 14:23:00,41.9,3.7,29.97,West,261,5.0,8.7,20,0.00,,,-99.99,FreeWX 2.04,2013-03-11 20:23:00,
2013-03-11 14:34:00,38.5,6.6,29.97,West,273,5.0,9.6,26,0.00,,,-99.99,FreeWX 2.04,2013-03-11 20:34:00,
2013-03-11 14:44:00,38.7,6.8,29.97,West,272,5.0,9.2,26,0.00,,,-99.99,FreeWX 2.04,2013-03-11 20:44:00,
2013-03-11 14:54:00,37.4,8.1,29.94,WNW,299,6.0,11.6,29,0.00,,,-99.99,FreeWX 2.04,2013-03-11 20:54:00,
2013-03-11 15:04:00,37.2,3.7,29.94,NW,309,6.0,11.0,24,0.00,,,-99.99,FreeWX 2.04,2013-03-11 21:04:00,
2013-03-11 15:14:00,37.6,5.9,29.94,NNW,329,6.0,10.5,26,0.00,,,-99.99,FreeWX 2.04,2013-03-11 21:14:00,
2013-03-11 15:24:00,36.5,7.3,29.94,NNW,333,6.0,9.2,29,0.00,,,-99.99,FreeWX 2.04,2013-03-11 21:24:00,
2013-03-11 15:34:00,35.6,7.3,29.94,NNW,332,7.0,11.6,30,0.00,,,-99.99,FreeWX 2.04,2013-03-11 21:34:00,
2013-03-11 15:44:00,35.2,7.0,29.94,NNW,330,7.0,10.1,30,0.00,,,-99.99,FreeWX 2.04,2013-03-11 21:44:00,
2013-03-11 15:54:00,35.6,6.4,29.94,NNW,329,8.0,12.5,29,0.00,,,-99.99,FreeWX 2.04,2013-03-11 21:54:00,
2013-03-11 16:04:00,35.6,7.3,29.94,NW,309,6.0,10.1,30,0.00,,,-99.99,FreeWX 2.04,2013-03-11 22:04:00,
2013-03-11 16:14:00,34.5,6.3,29.94,NW,306,6.0,9.6,30,0.00,,,-99.99,FreeWX 2.04,2013-03-11 22:14:00,
2013-03-11 16:24:00,33.8,6.4,29.94,WNW,300,6.0,9.2,31,0.00,,,-99.99,FreeWX 2.04,2013-03-11 22:24:00,
2013-03-11 16:34:00,33.8,5.7,29.94,NW,323,8.0,11.2,30,0.00,,,-99.99,FreeWX 2.04,2013-03-11 22:34:00,
2013-03-11 16:44:00,34.2,6.1,29.94,NNW,334,9.0,11.6,30,0.00,,,-99.99,FreeWX 2.04,2013-03-11 22:44:00,
2013-03-11 16:54:00,34.0,5.9,29.97,NNW,332,8.0,12.1,30,0.00,,,-99.99,FreeWX 2.04,2013-03-11 22:54:00,
2013-03-11 17:04:00,36.1,2.8,29.97,NW,317,6.0,9.6,24,0.00,,,-99.99,FreeWX 2.04,2013-03-11 23:04:00,
2013-03-11 17:14:00,35.4,0.3,29.97,NW,315,8.0,11.2,22,0.00,,,-99.99,FreeWX 2.04,2013-03-11 23:14:00,
2013-03-11 17:24:00,35.1,0.1,29.97,NW,325,9.0,12.5,22,0.00,,,-99.99,FreeWX 2.04,2013-03-11 23:24:00,
2013-03-11 17:34:00,33.6,1.6,29.97,NNW,336,9.0,12.5,25,0.00,,,-99.99,FreeWX 2.04,2013-03-11 23:34:00,
2013-03-11 17:44:00,34.5,2.3,29.97,NNW,334,9.0,12.1,25,0.00,,,-99.99,FreeWX 2.04,2013-03-11 23:44:00,
2013-03-11 17:54:00,35.8,0.7,29.97,NNW,339,8.0,13.0,22,0.00,,,-99.99,FreeWX 2.04,2013-03-11 23:54:00,
2013-03-11 18:04:00,36.3,-2.0,29.97,North,350,10.0,17.7,19,0.00,,,-99.99,FreeWX 2.04,2013-03-12 00:04:00,
2013-03-11 18:14:00,35.4,-2.7,29.97,North,351,12.0,16.8,19,0.00,,,-99.99,FreeWX 2.04,2013-03-12 00:14:00,
2013-03-11 18:24:00,34.9,-3.1,29.97,North,350,11.0,15.4,19,0.00,,,-99.99,FreeWX 2.04,2013-03-12 00:24:00,
2013-03-11 18:34:00,34.3,-2.6,29.97,North,349,8.0,12.1,20,0.00,,,-99.99,FreeWX 2.04,2013-03-12 00:34:00,
2013-03-11 18:44:00,33.6,-3.1,29.97,NNW,347,8.0,10.5,20,0.00,,,-99.99,FreeWX 2.04,2013-03-12 00:44:00,
2013-03-11 18:54:00,33.6,-3.1,29.97,NNW,348,8.0,11.0,20,0.00,,,-99.99,FreeWX 2.04,2013-03-12 00:54:00,
2013-03-11 19:04:00,33.1,-3.6,29.97,NNW,346,7.0,10.1,20,0.00,,,-99.99,FreeWX 2.04,2013-03-12 01:04:00,
2013-03-11 19:14:00,32.9,-3.6,29.97,NNW,345,6.0,9.2,20,0.00,,,-99.99,FreeWX 2.04,2013-03-12 01:14:00,
2013-03-11 19:24:00,32.7,-3.8,29.97,North,352,6.0,9.6,20,0.00,,,-99.99,FreeWX 2.04,2013-03-12 01:24:00,
2013-03-11 19:34:00,32.5,-4.0,29.97,North,354,5.0,7.8,20,0.00,,,-99.99,FreeWX 2.04,2013-03-12 01:34:00,
2013-03-11 19:44:00,31.8,-4.5,29.97,North,351,4.0,6.3,20,0.00,,,-99.99,FreeWX 2.04,2013-03-12 01:44:00,
2013-03-11 19:54:00,30.2,-6.0,29.97,North,-999,0.0,5.4,20,0.00,,,-99.99,FreeWX 2.04,2013-03-12 01:54:00,
2013-03-11 20:04:00,29.7,-6.5,29.97,North,11,2.0,6.3,20,0.00,,,-99.99,FreeWX 2.04,2013-03-12 02:04:00,
2013-03-11 20:14:00,30.0,-6.2,29.97,SE,135,4.0,6.3,20,0.00,,,-99.99,FreeWX 2.04,2013-03-12 02:14:00,
2013-03-11 20:24:00,28.9,-4.2,29.97,ESE,114,4.0,6.7,23,0.00,,,-99.99,FreeWX 2.04,2013-03-12 02:24:00,
2013-03-11 20:34:00,29.3,-2.0,29.97,SE,134,5.0,7.4,25,0.00,,,-99.99,FreeWX 2.04,2013-03-12 02:34:00,
2013-03-11 20:44:00,29.1,0.1,29.97,SE,145,3.0,7.8,28,0.00,,,-99.99,FreeWX 2.04,2013-03-12 02:44:00,
2013-03-11 20:54:00,28.4,1.6,29.97,SSE,150,1.0,4.5,31,0.00,,,-99.99,FreeWX 2.04,2013-03-12 02:54:00,
2013-03-11 21:04:00,28.0,1.4,29.97,SE,131,3.0,5.4,31,0.00,,,-99.99,FreeWX 2.04,2013-03-12 03:04:00,
2013-03-11 21:14:00,28.6,1.8,29.97,ESE,118,5.0,7.4,31,0.00,,,-99.99,FreeWX 2.04,2013-03-12 03:14:00,
2013-03-11 21:24:00,28.6,2.5,29.97,ESE,103,4.0,6.3,32,0.00,,,-99.99,FreeWX 2.04,2013-03-12 03:24:00,
2013-03-11 21:34:00,28.9,2.1,30.00,ESE,118,4.0,6.9,31,0.00,,,-99.99,FreeWX 2.04,2013-03-12 03:34:00,
2013-03-11 21:44:00,28.8,2.7,30.00,ESE,118,3.0,5.8,32,0.00,,,-99.99,FreeWX 2.04,2013-03-12 03:44:00,
2013-03-11 21:54:00,28.8,2.7,30.00,ESE,123,4.0,7.4,32,0.00,,,-99.99,FreeWX 2.04,2013-03-12 03:54:00,
2013-03-11 22:04:00,28.8,2.7,30.00,ESE,123,4.0,6.9,32,0.00,,,-99.99,FreeWX 2.04,2013-03-12 04:04:00,
2013-03-11 22:14:00,28.8,2.7,30.00,North,-999,0.0,0.0,32,0.00,,,-99.99,FreeWX 2.04,2013-03-12 04:14:00,
2013-03-11 22:24:00,28.4,2.3,30.00,ESE,110,3.0,5.4,32,0.00,,,-99.99,FreeWX 2.04,2013-03-12 04:24:00,
2013-03-11 22:34:00,28.2,2.8,30.00,ESE,118,4.0,5.4,33,0.00,,,-99.99,FreeWX 2.04,2013-03-12 04:34:00,
2013-03-11 22:44:00,28.4,3.0,30.00,SE,125,4.0,7.4,33,0.00,,,-99.99,FreeWX 2.04,2013-03-12 04:44:00,
2013-03-11 22:54:00,28.8,2.7,30.00,ESE,113,4.0,6.9,32,0.00,,,-99.99,FreeWX 2.04,2013-03-12 04:54:00,
2013-03-11 23:04:00,28.2,2.8,30.00,ESE,108,3.0,5.8,33,0.00,,,-99.99,FreeWX 2.04,2013-03-12 05:04:00,
2013-03-11 23:14:00,28.0,2.7,30.00,ESE,113,3.0,6.3,33,0.00,,,-99.99,FreeWX 2.04,2013-03-12 05:14:00,
2013-03-11 23:24:00,27.9,2.5,30.00,SE,126,4.0,6.7,33,0.00,,,-99.99,FreeWX 2.04,2013-03-12 05:24:00,
2013-03-11 23:34:00,27.1,2.5,30.00,SE,126,5.0,8.3,34,0.00,,,-99.99,FreeWX 2.04,2013-03-12 05:34:00,
2013-03-11 23:44:00,27.1,2.5,30.00,ESE,120,4.0,7.4,34,0.00,,,-99.99,FreeWX 2.04,2013-03-12 05:44:00,
2013-03-11 23:55:00,27.0,3.0,30.00,ESE,108,2.0,6.3,35,0.00,,,-99.99,FreeWX 2.04,2013-03-12 05:55:00,